Time;durP1;ratioP1;P1;durP2;ratioP2;P2;SDS_P1;SDS_P2;PMS_P1;PMS_P2;Temp;Humidity;BMP_temperature;BMP_pressure;BME280_temperature;BME280_humidity;BME280_pressure;Samples;Min_cycle;Max_cycle;Signal;HPM_P1;HPM_P2
2021/07/08 00:01:58;;;;;;;16.90;11.02;;;;;;;;;;5096849;28;20038;-86
2021/07/08 00:04:23;;;;;;;17.83;9.27;;;;;;;;;;5095551;28;20475;-84
2021/07/08 00:06:49;;;;;;;17.70;8.88;;;;;;;;;;5096589;28;20090;-84
2021/07/08 00:09:15;;;;;;;17.40;12.65;;;;;;;;;;5096922;28;20043;-84
2021/07/08 00:11:40;;;;;;;19.60;12.40;;;;;;;;;;5095393;28;20036;-84
2021/07/08 00:14:07;;;;;;;19.88;9.55;;;;;;;;;;5096645;28;20411;-85
2021/07/08 00:16:35;;;;;;;18.95;12.00;;;;;;;;;;5098124;28;20028;-85
2021/07/08 00:19:00;;;;;;;16.85;9.85;;;;;;;;;;5098362;28;20050;-85
2021/07/08 00:21:26;;;;;;;16.13;11.20;;;;;;;;;;5096677;28;20526;-84
2021/07/08 00:23:52;;;;;;;16.55;8.90;;;;;;;;;;5097143;28;20020;-84
2021/07/08 00:26:18;;;;;;;18.73;11.02;;;;;;;;;;5096555;28;20031;-84
2021/07/08 00:28:44;;;;;;;24.30;12.18;;;;;;;;;;5096277;28;20408;-84
2021/07/08 00:31:11;;;;;;;19.27;10.38;;;;;;;;;;5096556;28;20053;-86
2021/07/08 00:33:37;;;;;;;15.75;10.45;;;;;;;;;;5096442;28;20016;-84
2021/07/08 00:36:03;;;;;;;14.95;10.73;;;;;;;;;;5096128;28;20020;-84
2021/07/08 00:38:29;;;;;;;20.75;9.65;;;;;;;;;;5094878;28;20357;-85
2021/07/08 00:40:55;;;;;;;17.85;10.95;;;;;;;;;;5096118;28;20035;-84
2021/07/08 00:43:20;;;;;;;18.90;12.20;;;;;;;;;;5096238;28;20024;-84
2021/07/08 00:45:46;;;;;;;15.85;10.43;;;;;;;;;;5096021;28;20024;-84
2021/07/08 00:48:12;;;;;;;17.90;10.95;;;;;;;;;;5095922;28;20464;-84
2021/07/08 00:50:46;;;;;;;16.20;8.50;;;;;;;;;;5095875;28;20353;-84
2021/07/08 00:53:14;;;;;;;22.60;10.95;;;;;;;;;;5095928;28;20020;-84
2021/07/08 00:55:42;;;;;;;14.75;7.18;;;;;;;;;;5096107;28;20372;-84
2021/07/08 00:58:09;;;;;;;15.75;9.13;;;;;;;;;;5095815;28;20103;-84
2021/07/08 01:00:37;;;;;;;13.80;10.20;;;;;;;;;;5095673;28;20024;-84
2021/07/08 01:03:08;;;;;;;12.90;8.85;;;;;;;;;;5095590;28;20075;-84
2021/07/08 01:05:36;;;;;;;16.33;7.43;;;;;;;;;;5095336;28;20485;-85
2021/07/08 01:08:03;;;;;;;16.83;9.25;;;;;;;;;;5095653;28;20043;-84
2021/07/08 01:10:29;;;;;;;14.02;10.35;;;;;;;;;;5095575;28;20016;-85
2021/07/08 01:12:55;;;;;;;13.48;9.25;;;;;;;;;;5095574;28;20028;-84
2021/07/08 01:15:22;;;;;;;18.25;8.88;;;;;;;;;;5095482;28;20035;-84
2021/07/08 01:17:48;;;;;;;15.35;8.90;;;;;;;;;;5095393;28;20022;-84
2021/07/08 01:20:17;;;;;;;13.02;8.35;;;;;;;;;;5095415;28;20077;-85
2021/07/08 01:22:43;;;;;;;17.30;11.30;;;;;;;;;;5095316;28;20020;-85
2021/07/08 01:25:10;;;;;;;18.45;11.35;;;;;;;;;;5093926;28;20039;-84
2021/07/08 01:27:37;;;;;;;13.60;10.07;;;;;;;;;;5093903;28;20025;-85
2021/07/08 01:30:08;;;;;;;15.57;11.20;;;;;;;;;;5095208;28;20051;-84
2021/07/08 01:32:34;;;;;;;17.65;10.63;;;;;;;;;;5095105;28;20039;-85
2021/07/08 01:35:00;;;;;;;18.75;11.32;;;;;;;;;;5095118;28;20032;-85
2021/07/08 01:37:26;;;;;;;17.73;11.35;;;;;;;;;;5095057;28;20085;-84
2021/07/08 01:39:52;;;;;;;21.98;12.38;;;;;;;;;;5094951;28;20114;-84
2021/07/08 01:42:17;;;;;;;15.38;8.00;;;;;;;;;;5095000;28;20433;-83
2021/07/08 01:44:43;;;;;;;16.23;9.93;;;;;;;;;;5093445;28;20114;-84
2021/07/08 01:47:09;;;;;;;15.07;9.15;;;;;;;;;;5094857;28;20031;-85
2021/07/08 01:49:34;;;;;;;18.73;11.85;;;;;;;;;;5094908;28;20020;-84
2021/07/08 01:52:01;;;;;;;20.92;9.68;;;;;;;;;;5094772;28;20035;-84
2021/07/08 01:54:26;;;;;;;15.85;10.43;;;;;;;;;;5094628;28;20031;-85
2021/07/08 01:56:52;;;;;;;20.05;10.75;;;;;;;;;;5094762;28;20043;-84
2021/07/08 01:59:18;;;;;;;19.05;9.75;;;;;;;;;;5094713;28;20032;-85
2021/07/08 02:01:43;;;;;;;16.15;11.20;;;;;;;;;;5093713;28;20066;-85
2021/07/08 02:04:09;;;;;;;17.52;10.02;;;;;;;;;;5094651;28;20024;-85
2021/07/08 02:06:35;;;;;;;16.63;11.50;;;;;;;;;;5094257;28;20040;-85
2021/07/08 02:09:04;;;;;;;18.08;11.60;;;;;;;;;;5094454;28;20027;-86
2021/07/08 02:11:30;;;;;;;17.70;10.30;;;;;;;;;;5094393;28;20081;-84
2021/07/08 02:13:55;;;;;;;16.67;11.05;;;;;;;;;;5094260;28;20391;-84
2021/07/08 02:16:21;;;;;;;19.20;11.70;;;;;;;;;;5094089;28;20055;-85
2021/07/08 02:18:47;;;;;;;15.68;7.20;;;;;;;;;;5094259;28;20361;-84
2021/07/08 02:21:13;;;;;;;15.80;10.43;;;;;;;;;;5094229;28;20163;-84
2021/07/08 02:23:39;;;;;;;15.52;9.93;;;;;;;;;;5094162;28;20070;-84
2021/07/08 02:26:06;;;;;;;16.92;12.32;;;;;;;;;;5092747;28;20028;-85
2021/07/08 02:28:31;;;;;;;18.98;10.80;;;;;;;;;;5094125;28;20081;-84
2021/07/08 02:30:57;;;;;;;18.02;11.10;;;;;;;;;;5094043;28;20020;-84
2021/07/08 02:33:24;;;;;;;13.10;9.38;;;;;;;;;;5093994;28;20028;-85
2021/07/08 02:35:50;;;;;;;18.77;11.00;;;;;;;;;;5093996;28;20024;-85
2021/07/08 02:38:16;;;;;;;19.63;12.40;;;;;;;;;;5093980;28;20031;-84
2021/07/08 02:40:42;;;;;;;15.70;10.60;;;;;;;;;;5093873;28;20024;-85
2021/07/08 02:43:08;;;;;;;16.15;10.63;;;;;;;;;;5093918;28;20051;-85
2021/07/08 02:45:37;;;;;;;19.05;11.18;;;;;;;;;;5093762;28;20555;-85
2021/07/08 02:48:06;;;;;;;16.80;11.90;;;;;;;;;;5092414;28;20035;-86
2021/07/08 02:50:33;;;;;;;17.58;11.45;;;;;;;;;;5093826;28;20024;-85
2021/07/08 02:52:59;;;;;;;15.70;10.57;;;;;;;;;;5093774;28;20031;-84
2021/07/08 02:55:25;;;;;;;19.77;11.90;;;;;;;;;;5093693;28;20032;-85
2021/07/08 02:57:52;;;;;;;14.20;9.20;;;;;;;;;;5092510;28;20103;-85
2021/07/08 03:00:20;;;;;;;19.65;10.95;;;;;;;;;;5093565;28;20020;-84
2021/07/08 03:02:46;;;;;;;19.70;12.13;;;;;;;;;;5093607;28;20417;-84
2021/07/08 03:05:13;;;;;;;17.08;9.23;;;;;;;;;;5093528;28;20078;-86
2021/07/08 03:07:39;;;;;;;15.50;9.43;;;;;;;;;;5094064;28;20030;-84
2021/07/08 03:10:08;;;;;;;18.55;9.57;;;;;;;;;;5093625;28;20076;-84
2021/07/08 03:12:35;;;;;;;17.70;12.15;;;;;;;;;;5093749;28;20020;-85
2021/07/08 03:15:01;;;;;;;18.75;10.60;;;;;;;;;;5092329;28;20027;-84
2021/07/08 03:17:26;;;;;;;16.65;10.10;;;;;;;;;;5093587;28;20414;-84
2021/07/08 03:19:52;;;;;;;17.13;10.30;;;;;;;;;;5093537;28;20039;-86
2021/07/08 03:22:18;;;;;;;14.38;9.43;;;;;;;;;;5093420;28;20020;-85
2021/07/08 03:24:44;;;;;;;15.30;7.82;;;;;;;;;;5093318;28;20391;-85
2021/07/08 03:27:10;;;;;;;14.57;8.70;;;;;;;;;;5095066;28;20024;-86
2021/07/08 03:29:35;;;;;;;18.52;10.95;;;;;;;;;;5096251;28;20121;-83
2021/07/08 03:32:01;;;;;;;19.40;10.52;;;;;;;;;;5097651;28;20020;-84
2021/07/08 03:34:27;;;;;;;17.25;10.93;;;;;;;;;;5096183;28;20073;-86
2021/07/08 03:36:52;;;;;;;15.55;10.18;;;;;;;;;;5097470;28;20069;-83
2021/07/08 03:39:18;;;;;;;14.00;10.18;;;;;;;;;;5097450;28;20032;-84
2021/07/08 03:41:44;;;;;;;13.38;8.13;;;;;;;;;;5097417;28;20382;-84
2021/07/08 03:44:10;;;;;;;16.33;11.45;;;;;;;;;;5097366;28;20028;-83
2021/07/08 03:46:36;;;;;;;21.95;10.52;;;;;;;;;;5097124;28;20032;-83
2021/07/08 03:49:03;;;;;;;19.13;8.82;;;;;;;;;;5097085;28;20034;-83
2021/07/08 03:51:29;;;;;;;15.80;10.77;;;;;;;;;;5095807;28;20035;-84
2021/07/08 03:53:54;;;;;;;17.40;11.15;;;;;;;;;;5097039;28;20020;-83
2021/07/08 03:56:20;;;;;;;15.40;10.20;;;;;;;;;;5096998;28;20103;-82
2021/07/08 03:58:45;;;;;;;16.63;11.43;;;;;;;;;;5096998;28;20020;-83
2021/07/08 04:01:11;;;;;;;18.52;11.85;;;;;;;;;;5096931;28;20024;-83
2021/07/08 04:03:37;;;;;;;16.00;10.88;;;;;;;;;;5096717;28;20016;-85
2021/07/08 04:06:03;;;;;;;18.17;12.15;;;;;;;;;;5096534;28;20143;-83
2021/07/08 04:08:28;;;;;;;14.82;9.68;;;;;;;;;;5104212;28;20023;-82
2021/07/08 04:10:54;;;;;;;15.82;11.77;;;;;;;;;;5109914;28;20020;-86
2021/07/08 04:13:21;;;;;;;14.68;10.88;;;;;;;;;;5110531;28;20038;-82
2021/07/08 04:15:48;;;;;;;15.05;9.77;;;;;;;;;;5115910;28;20027;-83
2021/07/08 04:18:15;;;;;;;17.77;13.70;;;;;;;;;;5112031;28;20035;-82
2021/07/08 04:20:41;;;;;;;17.40;10.13;;;;;;;;;;5096323;28;20031;-83
2021/07/08 04:23:08;;;;;;;15.98;10.23;;;;;;;;;;5104523;28;20472;-87
2021/07/08 04:25:34;;;;;;;18.48;11.63;;;;;;;;;;5113148;28;20051;-88
2021/07/08 04:28:01;;;;;;;17.60;11.70;;;;;;;;;;5113524;28;20046;-87
2021/07/08 04:30:27;;;;;;;16.23;11.07;;;;;;;;;;5114985;28;20019;-88
2021/07/08 04:32:54;;;;;;;19.50;13.75;;;;;;;;;;5115049;27;20023;-88
2021/07/08 04:35:30;;;;;;;19.55;11.95;;;;;;;;;;5116659;28;20031;-88
2021/07/08 04:38:08;;;;;;;19.50;12.13;;;;;;;;;;5116622;28;20016;-88
2021/07/08 04:40:34;;;;;;;18.35;12.52;;;;;;;;;;5118298;28;20027;-87
2021/07/08 04:43:00;;;;;;;19.38;12.35;;;;;;;;;;5116526;28;20164;-88
2021/07/08 04:45:26;;;;;;;24.25;13.38;;;;;;;;;;5116168;28;20031;-88
2021/07/08 04:47:52;;;;;;;17.88;11.82;;;;;;;;;;5116728;28;20028;-87
2021/07/08 04:50:20;;;;;;;21.90;13.18;;;;;;;;;;5116541;28;20467;-88
2021/07/08 04:52:47;;;;;;;17.73;11.65;;;;;;;;;;5116442;28;20490;-88
2021/07/08 04:55:14;;;;;;;19.52;13.90;;;;;;;;;;5114969;28;20076;-86
2021/07/08 04:57:40;;;;;;;21.25;13.93;;;;;;;;;;5116230;28;20102;-87
2021/07/08 05:00:08;;;;;;;20.20;13.55;;;;;;;;;;5116154;28;20046;-87
2021/07/08 05:02:39;;;;;;;19.30;13.88;;;;;;;;;;5116097;28;20027;-87
2021/07/08 05:05:09;;;;;;;18.33;11.43;;;;;;;;;;5114626;28;20545;-87
2021/07/08 05:07:36;;;;;;;20.67;13.88;;;;;;;;;;5116110;28;20039;-88
2021/07/08 05:10:04;;;;;;;19.20;12.52;;;;;;;;;;5116335;28;20031;-87
2021/07/08 05:12:30;;;;;;;20.52;14.65;;;;;;;;;;5115957;27;20470;-88
2021/07/08 05:14:56;;;;;;;29.23;14.80;;;;;;;;;;5115885;28;20106;-87
2021/07/08 05:17:22;;;;;;;19.90;13.88;;;;;;;;;;5116032;28;20019;-88
2021/07/08 05:19:47;;;;;;;19.60;12.98;;;;;;;;;;5115824;28;20467;-86
2021/07/08 05:22:16;;;;;;;19.60;14.25;;;;;;;;;;5115783;28;20047;-87
2021/07/08 05:24:42;;;;;;;21.52;11.40;;;;;;;;;;5114375;28;20019;-88
2021/07/08 05:27:12;;;;;;;18.05;12.70;;;;;;;;;;5115637;27;20038;-87
2021/07/08 05:29:37;;;;;;;;;;;;;;;;;;5115967;28;20031;-87
2021/07/08 05:32:03;;;;;;;22.05;15.07;;;;;;;;;;5115879;28;20412;-88
2021/07/08 05:34:29;;;;;;;22.30;13.95;;;;;;;;;;5114298;28;20047;-86
2021/07/08 05:36:55;;;;;;;18.52;10.63;;;;;;;;;;5115470;28;20100;-87
2021/07/08 05:39:20;;;;;;;22.35;13.63;;;;;;;;;;5114207;28;20115;-88
2021/07/08 05:41:46;;;;;;;19.30;10.77;;;;;;;;;;5114112;28;20051;-87
2021/07/08 05:44:11;;;;;;;21.88;14.35;;;;;;;;;;5115692;28;20035;-90
2021/07/08 05:46:37;;;;;;;19.85;13.60;;;;;;;;;;5115266;28;20024;-87
2021/07/08 05:49:03;;;;;;;18.90;14.07;;;;;;;;;;5115102;28;20030;-89
2021/07/08 05:51:30;;;;;;;19.55;11.93;;;;;;;;;;5114954;28;20034;-87
2021/07/08 05:53:59;;;;;;;17.77;10.82;;;;;;;;;;5115239;28;20064;-88
2021/07/08 05:56:26;;;;;;;17.40;12.68;;;;;;;;;;5115056;28;20054;-88
2021/07/08 05:58:52;;;;;;;18.67;10.88;;;;;;;;;;5115027;28;20207;-87
2021/07/08 06:01:19;;;;;;;17.55;12.55;;;;;;;;;;5114988;28;20024;-87
2021/07/08 06:03:45;;;;;;;22.13;15.18;;;;;;;;;;5115048;28;20107;-88
2021/07/08 06:06:11;;;;;;;24.85;15.48;;;;;;;;;;5113401;28;20504;-90
2021/07/08 06:08:36;;;;;;;19.58;14.40;;;;;;;;;;5114808;28;20020;-88
2021/07/08 06:11:02;;;;;;;22.60;15.15;;;;;;;;;;5113611;28;20027;-87
2021/07/08 06:13:28;;;;;;;22.90;12.25;;;;;;;;;;5114815;28;20030;-88
2021/07/08 06:15:54;;;;;;;19.48;13.43;;;;;;;;;;5114738;28;20023;-87
2021/07/08 06:18:19;;;;;;;19.33;13.20;;;;;;;;;;5114791;28;20478;-87
2021/07/08 06:20:46;;;;;;;15.00;11.52;;;;;;;;;;5114890;28;20024;-89
2021/07/08 06:23:12;;;;;;;18.55;11.20;;;;;;;;;;5114997;28;20020;-88
2021/07/08 06:25:37;;;;;;;14.95;8.75;;;;;;;;;;5114875;28;20027;-88
2021/07/08 06:28:03;;;;;;;14.90;10.82;;;;;;;;;;5113499;28;20086;-88
2021/07/08 06:30:29;;;;;;;15.27;9.07;;;;;;;;;;5114553;28;20467;-88
2021/07/08 06:32:54;;;;;;;14.63;9.30;;;;;;;;;;5114606;28;20099;-88
2021/07/08 06:35:20;;;;;;;18.77;13.13;;;;;;;;;;5114496;28;20024;-88
2021/07/08 06:37:46;;;;;;;17.77;12.68;;;;;;;;;;5114476;28;20027;-87
2021/07/08 06:40:15;;;;;;;16.83;11.95;;;;;;;;;;5114426;28;20028;-88
2021/07/08 06:42:41;;;;;;;17.23;12.00;;;;;;;;;;5113089;28;20379;-87
2021/07/08 06:45:11;;;;;;;14.10;8.98;;;;;;;;;;5112936;28;20028;-88
2021/07/08 06:47:38;;;;;;;17.13;11.55;;;;;;;;;;5113026;28;20054;-87
2021/07/08 06:50:06;;;;;;;18.95;12.00;;;;;;;;;;5113037;28;20031;-88
2021/07/08 06:52:31;;;;;;;17.27;12.52;;;;;;;;;;5114252;28;20024;-87
2021/07/08 06:54:57;;;;;;;16.60;12.70;;;;;;;;;;5112897;28;20034;-87
2021/07/08 06:57:23;;;;;;;15.27;9.30;;;;;;;;;;5112861;28;20023;-87
2021/07/08 06:59:48;;;;;;;13.70;10.20;;;;;;;;;;5114132;28;20108;-87
2021/07/08 07:02:14;;;;;;;11.95;9.65;;;;;;;;;;5114273;28;20020;-87
2021/07/08 07:04:39;;;;;;;14.93;10.95;;;;;;;;;;5112556;28;20135;-87
2021/07/08 07:07:05;;;;;;;14.75;11.10;;;;;;;;;;5113965;28;20115;-87
2021/07/08 07:09:31;;;;;;;15.13;10.98;;;;;;;;;;5113988;28;20043;-88
2021/07/08 07:11:56;;;;;;;15.07;10.95;;;;;;;;;;5112761;28;20031;-89
2021/07/08 07:14:22;;;;;;;12.57;7.53;;;;;;;;;;5112752;28;20070;-87
2021/07/08 07:16:48;;;;;;;14.60;12.05;;;;;;;;;;5113987;28;20454;-88
2021/07/08 07:19:13;;;;;;;16.65;12.27;;;;;;;;;;5113878;28;20106;-87
2021/07/08 07:21:39;;;;;;;16.45;8.95;;;;;;;;;;5113867;28;20024;-87
2021/07/08 07:24:05;;;;;;;14.95;8.13;;;;;;;;;;5113844;28;20072;-87
2021/07/08 07:26:30;;;;;;;20.85;14.00;;;;;;;;;;5114089;28;20074;-87
2021/07/08 07:28:56;;;;;;;16.45;12.38;;;;;;;;;;5112543;28;20039;-88
2021/07/08 07:31:22;;;;;;;19.13;13.77;;;;;;;;;;5112887;28;20490;-87
2021/07/08 07:33:47;;;;;;;18.85;10.63;;;;;;;;;;5113783;28;20514;-90
2021/07/08 07:36:13;;;;;;;16.85;12.95;;;;;;;;;;5113878;28;20020;-90
2021/07/08 07:38:42;;;;;;;17.73;10.95;;;;;;;;;;5112506;28;20080;-88
2021/07/08 07:41:08;;;;;;;23.10;15.20;;;;;;;;;;5114208;28;20379;-90
2021/07/08 07:43:34;;;;;;;17.80;11.00;;;;;;;;;;5113837;28;20038;-88
2021/07/08 07:46:00;;;;;;;16.25;12.88;;;;;;;;;;5113659;28;20074;-89
2021/07/08 07:48:26;;;;;;;16.35;11.52;;;;;;;;;;5113700;28;20020;-89
2021/07/08 07:50:52;;;;;;;15.70;11.63;;;;;;;;;;5113700;28;20043;-88
2021/07/08 07:53:18;;;;;;;17.27;12.00;;;;;;;;;;5113542;28;20459;-88
2021/07/08 07:55:44;;;;;;;13.50;11.27;;;;;;;;;;5113603;28;20053;-89
2021/07/08 07:58:10;;;;;;;13.90;10.23;;;;;;;;;;5113553;28;20032;-88
2021/07/08 08:00:36;;;;;;;12.23;10.45;;;;;;;;;;5113535;28;20019;-88
2021/07/08 08:03:02;;;;;;;16.45;10.30;;;;;;;;;;5112225;28;20490;-89
2021/07/08 08:10:43;;;;;;;11.50;7.20;;;;;;;;;;5113808;28;20379;-88
2021/07/08 08:13:10;;;;;;;14.95;10.90;;;;;;;;;;5114704;28;20028;-88
2021/07/08 08:15:36;;;;;;;12.50;7.00;;;;;;;;;;5117085;28;20402;-87
2021/07/08 08:18:02;;;;;;;12.57;11.27;;;;;;;;;;5117175;28;20024;-87
2021/07/08 08:20:30;;;;;;;14.05;8.63;;;;;;;;;;5117263;28;20061;-88
2021/07/08 08:22:56;;;;;;;14.05;10.32;;;;;;;;;;5116948;28;20024;-87
2021/07/08 08:25:22;;;;;;;12.63;9.85;;;;;;;;;;5116827;28;20035;-86
2021/07/08 08:27:48;;;;;;;13.85;10.43;;;;;;;;;;5117037;28;20023;-89
2021/07/08 08:30:14;;;;;;;14.23;6.78;;;;;;;;;;5116851;28;20028;-88
2021/07/08 08:32:41;;;;;;;14.07;7.57;;;;;;;;;;5116774;28;20023;-88
2021/07/08 08:35:08;;;;;;;13.85;8.63;;;;;;;;;;5116739;28;20023;-88
2021/07/08 08:37:34;;;;;;;12.57;8.98;;;;;;;;;;5116877;28;20034;-88
2021/07/08 08:40:01;;;;;;;13.15;10.02;;;;;;;;;;5115432;28;20388;-88
2021/07/08 08:42:27;;;;;;;12.30;9.10;;;;;;;;;;5116623;28;20019;-88
2021/07/08 08:44:55;;;;;;;14.68;10.25;;;;;;;;;;5115302;28;20039;-88
2021/07/08 08:47:22;;;;;;;12.35;9.40;;;;;;;;;;5117195;28;20428;-90
2021/07/08 08:49:48;;;;;;;13.88;9.60;;;;;;;;;;5115659;28;20031;-88
2021/07/08 08:52:14;;;;;;;12.75;11.43;;;;;;;;;;5116522;28;20467;-87
2021/07/08 08:54:41;;;;;;;12.35;9.15;;;;;;;;;;5116802;28;20096;-88
2021/07/08 08:57:06;;;;;;;12.73;9.32;;;;;;;;;;5115332;28;20023;-89
2021/07/08 08:59:32;;;;;;;12.98;7.45;;;;;;;;;;5117065;28;20371;-88
2021/07/08 09:02:18;;;;;;;11.75;7.47;;;;;;;;;;5118091;28;20028;-88
2021/07/08 09:04:48;;;;;;;12.93;8.60;;;;;;;;;;5120556;28;20027;-88
2021/07/08 09:07:28;;;;;;;11.13;8.95;;;;;;;;;;5117919;28;20054;-89
2021/07/08 09:10:09;;;;;;;11.88;9.20;;;;;;;;;;5115618;28;20024;-89
2021/07/08 09:12:34;;;;;;;8.75;5.30;;;;;;;;;;5115379;28;20357;-88
2021/07/08 09:15:19;;;;;;;9.13;7.65;;;;;;;;;;5116283;28;20073;-88
2021/07/08 09:17:46;;;;;;;8.77;7.60;;;;;;;;;;5114763;28;20562;-89
2021/07/08 09:20:16;;;;;;;10.85;7.32;;;;;;;;;;5115926;28;20034;-90
2021/07/08 09:22:45;;;;;;;9.05;7.85;;;;;;;;;;5115867;28;20024;-90
2021/07/08 09:25:19;;;;;;;10.57;6.60;;;;;;;;;;5115708;28;20055;-90
2021/07/08 09:27:46;;;;;;;9.98;7.75;;;;;;;;;;5115870;28;20024;-90
2021/07/08 09:30:32;;;;;;;10.02;7.13;;;;;;;;;;5114402;28;20502;-90
2021/07/08 09:32:58;;;;;;;9.48;8.40;;;;;;;;;;5115185;28;20118;-89
2021/07/08 09:35:32;;;;;;;12.18;8.65;;;;;;;;;;5114238;28;20062;-89
2021/07/08 09:38:12;;;;;;;11.73;8.80;;;;;;;;;;5114126;28;20498;-90
2021/07/08 09:40:40;;;;;;;11.55;8.90;;;;;;;;;;5115592;28;20023;-91
2021/07/08 09:43:06;;;;;;;12.25;7.88;;;;;;;;;;5115308;27;20024;-89
2021/07/08 09:45:44;;;;;;;8.93;5.45;;;;;;;;;;5113927;28;20372;-90
2021/07/08 09:48:20;;;;;;;10.38;5.88;;;;;;;;;;5114069;28;20031;-89
2021/07/08 09:50:46;;;;;;;21.48;10.50;;;;;;;;;;5115466;28;20028;-90
2021/07/08 09:53:18;;;;;;;9.20;5.78;;;;;;;;;;5115301;28;20047;-90
2021/07/08 09:56:31;;;;;;;12.48;8.65;;;;;;;;;;5113893;28;20032;-89
2021/07/08 09:58:58;;;;;;;10.30;8.27;;;;;;;;;;5114932;28;20048;-90
2021/07/08 10:01:25;;;;;;;9.88;8.38;;;;;;;;;;5114993;28;20024;-89
2021/07/08 10:03:52;;;;;;;8.13;5.13;;;;;;;;;;5113728;28;20023;-90
2021/07/08 10:06:19;;;;;;;12.98;6.22;;;;;;;;;;5114649;28;20044;-89
2021/07/08 10:08:45;;;;;;;9.63;7.20;;;;;;;;;;5113702;28;20110;-89
2021/07/08 10:11:13;;;;;;;11.10;8.00;;;;;;;;;;5114904;28;20176;-89
2021/07/08 10:13:40;;;;;;;11.00;9.05;;;;;;;;;;5113505;28;20047;-89
2021/07/08 10:16:06;;;;;;;12.15;8.52;;;;;;;;;;5114715;28;20059;-90
2021/07/08 10:18:35;;;;;;;10.93;6.57;;;;;;;;;;5113425;28;20433;-89
2021/07/08 10:21:01;;;;;;;13.75;6.50;;;;;;;;;;5113417;28;20023;-90
2021/07/08 10:23:32;;;;;;;9.68;8.23;;;;;;;;;;5113273;28;20047;-89
2021/07/08 10:25:59;;;;;;;10.10;7.88;;;;;;;;;;5114501;28;20024;-90
2021/07/08 10:28:26;;;;;;;11.60;8.00;;;;;;;;;;5113330;28;20505;-90
2021/07/08 10:30:52;;;;;;;11.15;8.07;;;;;;;;;;5113241;28;20080;-90
2021/07/08 10:33:21;;;;;;;9.32;5.25;;;;;;;;;;5113216;28;20027;-89
2021/07/08 10:35:50;;;;;;;11.98;7.20;;;;;;;;;;5112691;28;20088;-89
2021/07/08 10:38:38;;;;;;;10.73;7.28;;;;;;;;;;5113104;28;20080;-89
2021/07/08 10:41:07;;;;;;;9.65;7.22;;;;;;;;;;5114423;28;20024;-89
2021/07/08 10:43:36;;;;;;;11.25;9.07;;;;;;;;;;5112962;28;20498;-92
2021/07/08 10:46:11;;;;;;;13.55;10.50;;;;;;;;;;5113499;28;20032;-88
2021/07/08 10:48:44;;;;;;;14.40;10.93;;;;;;;;;;5113488;28;20023;-89
2021/07/08 10:51:17;;;;;;;11.77;7.20;;;;;;;;;;5113289;28;20363;-90
2021/07/08 10:53:45;;;;;;;12.25;8.77;;;;;;;;;;5114161;28;20059;-90
2021/07/08 10:56:13;;;;;;;11.07;6.28;;;;;;;;;;5112801;28;20398;-89
2021/07/08 10:58:43;;;;;;;13.43;9.80;;;;;;;;;;5112857;28;20028;-89
2021/07/08 11:01:28;;;;;;;12.57;9.77;;;;;;;;;;5112796;28;20156;-89
2021/07/08 11:04:02;;;;;;;12.77;8.68;;;;;;;;;;5113937;28;20035;-88
2021/07/08 11:06:33;;;;;;;11.05;8.63;;;;;;;;;;5113680;28;20044;-90
2021/07/08 11:09:08;;;;;;;11.95;8.48;;;;;;;;;;5112817;28;20059;-90
2021/07/08 11:11:34;;;;;;;11.00;8.93;;;;;;;;;;5112677;28;20073;-89
2021/07/08 11:14:11;;;;;;;12.02;9.45;;;;;;;;;;5113983;28;20051;-91
2021/07/08 11:16:43;;;;;;;10.60;8.98;;;;;;;;;;5112623;28;20038;-88
2021/07/08 11:19:11;;;;;;;11.18;8.40;;;;;;;;;;5112668;28;20032;-89
2021/07/08 11:21:53;;;;;;;10.43;5.97;;;;;;;;;;5113534;28;20031;-89
2021/07/08 11:24:23;;;;;;;13.70;7.75;;;;;;;;;;5113959;28;20042;-91
2021/07/08 11:26:54;;;;;;;13.77;8.82;;;;;;;;;;5113877;28;20410;-90
2021/07/08 11:29:37;;;;;;;10.13;8.25;;;;;;;;;;5113899;28;20042;-90
2021/07/08 11:32:19;;;;;;;10.48;5.95;;;;;;;;;;5112496;28;20475;-91
2021/07/08 11:35:32;;;;;;;12.20;7.60;;;;;;;;;;5113773;28;20524;-91
2021/07/08 11:38:00;;;;;;;11.40;7.43;;;;;;;;;;5112384;28;20066;-90
2021/07/08 11:40:30;;;;;;;12.40;7.88;;;;;;;;;;5112203;28;20024;-89
2021/07/08 11:42:55;;;;;;;10.90;9.75;;;;;;;;;;5113593;28;20417;-90
2021/07/08 11:45:28;;;;;;;8.38;4.97;;;;;;;;;;5113752;28;20080;-90
2021/07/08 11:47:56;;;;;;;11.07;8.75;;;;;;;;;;5114541;28;20039;-90
2021/07/08 11:50:22;;;;;;;10.63;8.25;;;;;;;;;;5117650;28;20019;-90
2021/07/08 11:53:03;;;;;;;12.32;8.65;;;;;;;;;;5116261;28;20032;-91
2021/07/08 11:55:29;;;;;;;10.20;7.90;;;;;;;;;;5116291;28;20383;-90
2021/07/08 11:58:02;;;;;;;9.40;5.93;;;;;;;;;;5117469;28;20024;-90
2021/07/08 12:00:30;;;;;;;8.60;4.68;;;;;;;;;;5117471;28;20024;-91
2021/07/08 12:02:56;;;;;;;11.25;8.38;;;;;;;;;;5117364;28;20046;-90
2021/07/08 12:05:22;;;;;;;9.40;5.03;;;;;;;;;;5115720;28;20487;-90
2021/07/08 12:08:21;;;;;;;8.75;5.10;;;;;;;;;;5117249;28;20028;-89
2021/07/08 12:10:43;;;;;;;10.07;4.40;;;;;;;;;;5113326;28;20093;-92
2021/07/08 12:13:16;;;;;;;8.27;6.10;;;;;;;;;;5115837;28;20054;-88
2021/07/08 12:15:42;;;;;;;10.52;7.43;;;;;;;;;;5117249;28;20059;-89
2021/07/08 12:18:08;;;;;;;11.48;7.60;;;;;;;;;;5117123;28;20022;-90
2021/07/08 12:20:36;;;;;;;11.38;5.35;;;;;;;;;;5117048;28;20106;-91
2021/07/08 12:23:04;;;;;;;9.10;5.28;;;;;;;;;;5116968;28;20359;-90
2021/07/08 12:25:31;;;;;;;7.75;4.30;;;;;;;;;;5116776;28;20027;-88
2021/07/08 12:27:57;;;;;;;11.65;5.38;;;;;;;;;;5116904;28;20028;-90
2021/07/08 12:30:28;;;;;;;8.80;6.30;;;;;;;;;;5115685;28;20072;-89
2021/07/08 12:33:12;;;;;;;8.65;5.40;;;;;;;;;;5115413;28;20380;-90
2021/07/08 12:35:46;;;;;;;7.95;4.03;;;;;;;;;;5116659;28;20049;-88
2021/07/08 12:38:18;;;;;;;9.25;4.15;;;;;;;;;;5115770;28;20034;-90
2021/07/08 12:40:47;;;;;;;8.30;4.72;;;;;;;;;;5115255;28;20020;-89
2021/07/08 12:43:18;;;;;;;6.82;4.82;;;;;;;;;;5116886;28;20467;-90
2021/07/08 12:45:45;;;;;;;8.95;7.13;;;;;;;;;;5115228;28;20383;-88
2021/07/08 12:48:16;;;;;;;10.15;3.92;;;;;;;;;;5116495;28;20027;-88
2021/07/08 12:50:44;;;;;;;7.32;4.43;;;;;;;;;;5115520;28;20107;-91
2021/07/08 12:53:13;;;;;;;7.93;6.57;;;;;;;;;;5115104;28;20547;-91
2021/07/08 12:55:48;;;;;;;8.88;4.13;;;;;;;;;;5116513;28;20032;-91
2021/07/08 12:58:15;;;;;;;10.02;7.53;;;;;;;;;;5116222;28;20498;-90
2021/07/08 13:00:41;;;;;;;11.10;6.18;;;;;;;;;;5116208;28;20038;-89
2021/07/08 13:03:14;;;;;;;7.53;4.70;;;;;;;;;;5116254;28;20023;-90
2021/07/08 13:05:43;;;;;;;9.82;3.95;;;;;;;;;;5116009;28;20079;-89
2021/07/08 13:08:10;;;;;;;10.38;4.72;;;;;;;;;;5116124;28;20527;-89
2021/07/08 13:10:39;;;;;;;10.95;3.80;;;;;;;;;;5116179;28;20046;-89
2021/07/08 13:13:05;;;;;;;7.97;5.25;;;;;;;;;;5114809;28;20028;-90
2021/07/08 13:15:32;;;;;;;9.43;5.78;;;;;;;;;;5116122;27;20066;-89
2021/07/08 13:18:09;;;;;;;9.48;4.85;;;;;;;;;;5116255;27;20020;-88
2021/07/08 13:20:37;;;;;;;10.02;5.43;;;;;;;;;;5115250;28;20097;-88
2021/07/08 13:23:18;;;;;;;9.02;4.15;;;;;;;;;;5118454;27;20375;-90
2021/07/08 13:25:49;;;;;;;14.25;7.43;;;;;;;;;;5119368;28;20030;-90
2021/07/08 13:28:29;;;;;;;21.92;12.90;;;;;;;;;;5117940;27;20027;-88
2021/07/08 13:31:00;;;;;;;56.83;25.27;;;;;;;;;;5114857;28;20042;-88
2021/07/08 13:33:40;;;;;;;40.55;19.88;;;;;;;;;;5114729;28;20027;-89
2021/07/08 13:36:16;;;;;;;6.90;3.85;;;;;;;;;;5115941;28;20024;-89
2021/07/08 13:38:46;;;;;;;10.63;6.32;;;;;;;;;;5115944;28;20020;-89
2021/07/08 13:41:31;;;;;;;8.05;4.68;;;;;;;;;;5114298;28;20023;-90
2021/07/08 13:44:04;;;;;;;9.02;5.57;;;;;;;;;;5115481;28;20386;-92
2021/07/08 13:46:41;;;;;;;8.43;4.90;;;;;;;;;;5114010;28;20061;-89
2021/07/08 13:49:20;;;;;;;6.72;3.25;;;;;;;;;;5114033;28;20019;-88
2021/07/08 13:51:53;;;;;;;7.95;5.38;;;;;;;;;;5115288;28;20019;-89
2021/07/08 13:54:24;;;;;;;7.68;5.70;;;;;;;;;;5115235;28;20053;-88
2021/07/08 13:56:52;;;;;;;8.32;5.68;;;;;;;;;;5113889;28;20443;-90
2021/07/08 13:59:19;;;;;;;8.00;3.38;;;;;;;;;;5115054;28;20023;-89
2021/07/08 14:01:46;;;;;;;6.85;2.78;;;;;;;;;;5115092;28;20368;-89
2021/07/08 14:04:12;;;;;;;6.57;5.40;;;;;;;;;;5113661;28;20023;-89
2021/07/08 14:06:37;;;;;;;7.90;6.07;;;;;;;;;;5114659;28;20051;-88
2021/07/08 14:09:05;;;;;;;7.45;5.70;;;;;;;;;;5114923;28;20498;-88
2021/07/08 14:11:31;;;;;;;7.15;5.80;;;;;;;;;;5114141;28;20070;-89
2021/07/08 14:13:57;;;;;;;7.43;4.20;;;;;;;;;;5114870;28;20496;-88
2021/07/08 14:16:24;;;;;;;8.27;5.47;;;;;;;;;;5114726;28;20034;-89
2021/07/08 14:18:50;;;;;;;7.38;3.97;;;;;;;;;;5113411;28;20541;-89
2021/07/08 14:21:16;;;;;;;8.30;6.00;;;;;;;;;;5114725;28;20077;-88
2021/07/08 14:23:43;;;;;;;7.03;3.97;;;;;;;;;;5114603;28;20027;-88
2021/07/08 14:26:09;;;;;;;6.50;3.08;;;;;;;;;;5114767;28;20034;-89
2021/07/08 14:28:35;;;;;;;7.88;5.60;;;;;;;;;;5114697;28;20483;-89
2021/07/08 14:31:01;;;;;;;7.90;3.88;;;;;;;;;;5114688;28;20030;-89
2021/07/08 14:33:27;;;;;;;9.50;6.40;;;;;;;;;;5111870;28;20028;-91
2021/07/08 14:35:53;;;;;;;8.50;4.15;;;;;;;;;;5106497;22;20505;-91
2021/07/08 14:38:19;;;;;;;10.25;3.45;;;;;;;;;;5052399;28;20078;-91